Time;durP1;ratioP1;P1;durP2;ratioP2;P2;SDS_P1;SDS_P2;PMS_P1;PMS_P2;Temp;Humidity;BMP_temperature;BMP_pressure;BME280_temperature;BME280_humidity;BME280_pressure;Samples;Min_cycle;Max_cycle;Signal;HPM_P1;HPM_P2
2022/07/01 00:00:11;;;;;;;13.63;12.27;;;17.30;99.90;;;;;;4970795;28;20043;-89
2022/07/01 00:02:36;;;;;;;14.75;13.30;;;17.40;99.90;;;;;;4971239;28;20035;-89
2022/07/01 00:05:02;;;;;;;15.35;13.75;;;17.40;99.90;;;;;;4970917;28;20038;-90
2022/07/01 00:07:28;;;;;;;14.30;12.90;;;17.40;99.90;;;;;;4970847;28;20078;-90
2022/07/01 00:09:54;;;;;;;13.70;12.35;;;17.30;99.90;;;;;;4954773;29;20024;-90
2022/07/01 00:12:41;;;;;;;14.95;13.45;;;17.40;99.90;;;;;;4970693;28;20027;-90
2022/07/01 00:15:07;;;;;;;14.73;13.23;;;17.40;99.90;;;;;;4955571;29;20024;-90
2022/07/01 00:17:33;;;;;;;13.77;12.48;;;17.40;99.90;;;;;;4954584;29;20019;-90
2022/07/01 00:19:59;;;;;;;14.40;13.10;;;17.40;99.90;;;;;;4970507;28;20031;-89
2022/07/01 00:25:47;;;;;;;15.25;13.65;;;17.30;99.90;;;;;;4957816;29;20089;-89
2022/07/01 00:28:13;;;;;;;15.18;13.57;;;17.30;99.90;;;;;;4973418;28;20489;-87
2022/07/01 00:30:39;;;;;;;15.48;12.82;;;17.30;99.90;;;;;;4954528;29;20019;-87
2022/07/01 00:33:04;;;;;;;14.20;12.68;;;17.30;99.90;;;;;;4954192;29;20024;-88
2022/07/01 00:35:30;;;;;;;15.23;13.63;;;17.20;99.90;;;;;;4964247;22;20452;-88
2022/07/01 00:37:57;;;;;;;14.75;13.23;;;17.20;99.90;;;;;;4979240;28;20027;-89
2022/07/01 00:40:23;;;;;;;14.25;12.95;;;17.20;99.90;;;;;;4976731;28;20059;-89
2022/07/01 00:42:49;;;;;;;14.75;13.32;;;17.10;99.90;;;;;;4941313;28;20345;-89
2022/07/01 00:45:15;;;;;;;17.23;13.27;;;17.10;99.90;;;;;;4941462;28;20106;-89
2022/07/01 00:47:42;;;;;;;18.80;15.60;;;17.10;99.90;;;;;;4941190;28;20313;-88
2022/07/01 00:50:11;;;;;;;16.83;15.02;;;17.10;99.90;;;;;;4989237;28;20452;-89
2022/07/01 00:52:39;;;;;;;17.85;15.40;;;17.00;99.90;;;;;;4989076;28;20483;-89
2022/07/01 00:55:07;;;;;;;17.00;14.82;;;17.00;99.90;;;;;;4973018;28;20058;-88
2022/07/01 00:57:35;;;;;;;19.73;17.05;;;17.00;99.90;;;;;;4975842;28;20022;-89
2022/07/01 01:00:09;;;;;;;21.58;18.52;;;17.00;99.90;;;;;;4990169;28;20384;-85
2022/07/01 01:02:35;;;;;;;26.05;19.33;;;16.90;99.90;;;;;;4973567;28;20444;-85
2022/07/01 01:05:02;;;;;;;27.75;22.83;;;16.90;99.90;;;;;;4940108;28;20026;-85
2022/07/01 01:07:29;;;;;;;28.95;23.63;;;16.90;99.90;;;;;;4939434;28;20069;-85
2022/07/01 01:09:56;;;;;;;28.00;23.58;;;16.90;99.90;;;;;;4988065;28;20045;-86
2022/07/01 01:12:25;;;;;;;29.60;23.95;;;16.80;99.90;;;;;;4987884;28;20475;-85
2022/07/01 01:14:52;;;;;;;33.08;25.70;;;16.80;99.90;;;;;;4987762;28;20422;-85
2022/07/01 01:17:18;;;;;;;34.22;27.15;;;16.70;99.90;;;;;;4987650;28;20093;-85
2022/07/01 01:19:45;;;;;;;32.65;25.50;;;16.70;99.90;;;;;;4971579;28;20173;-85
2022/07/01 01:22:15;;;;;;;30.95;26.10;;;16.60;99.90;;;;;;4987736;28;20049;-86
2022/07/01 01:24:41;;;;;;;37.08;29.02;;;16.60;99.90;;;;;;4972937;28;20097;-85
2022/07/01 01:27:07;;;;;;;35.00;27.35;;;16.60;99.90;;;;;;4939339;28;20034;-86
2022/07/01 01:29:34;;;;;;;36.53;28.95;;;16.60;99.90;;;;;;4955533;28;20380;-86
2022/07/01 01:32:00;;;;;;;33.90;27.42;;;16.50;99.90;;;;;;4939643;28;20061;-86
2022/07/01 01:34:27;;;;;;;36.50;28.73;;;16.50;99.90;;;;;;4987626;28;20106;-86
2022/07/01 01:36:53;;;;;;;33.85;27.42;;;16.50;99.90;;;;;;4984150;28;20169;-86
2022/07/01 01:39:19;;;;;;;33.95;27.88;;;16.40;99.90;;;;;;4951916;29;20027;-86
2022/07/01 01:41:45;;;;;;;35.67;29.80;;;16.40;99.90;;;;;;4951852;29;20484;-86
2022/07/01 01:44:12;;;;;;;34.75;28.42;;;16.40;99.90;;;;;;4951982;29;20110;-86
2022/07/01 01:46:38;;;;;;;35.13;29.20;;;16.40;99.90;;;;;;4935910;29;20035;-86
2022/07/01 01:49:05;;;;;;;36.83;31.00;;;16.40;99.90;;;;;;4935951;29;20016;-86
2022/07/01 01:51:31;;;;;;;37.17;30.23;;;16.40;99.90;;;;;;4936092;29;20393;-86
2022/07/01 01:53:57;;;;;;;35.92;30.10;;;16.40;99.90;;;;;;4936461;29;20376;-86
2022/07/01 01:56:24;;;;;;;38.92;29.75;;;16.40;99.90;;;;;;4952756;29;20096;-85
2022/07/01 01:58:50;;;;;;;33.65;28.15;;;16.40;99.90;;;;;;4935919;29;20389;-86
2022/07/01 02:01:17;;;;;;;35.28;29.30;;;16.50;99.90;;;;;;4951706;29;20468;-85
2022/07/01 02:03:44;;;;;;;38.63;31.15;;;16.50;99.90;;;;;;4951570;29;20023;-83
2022/07/01 02:06:25;;;;;;;36.10;29.80;;;16.50;99.90;;;;;;4935442;29;20476;-84
2022/07/01 02:08:51;;;;;;;35.47;29.55;;;16.50;99.90;;;;;;4935618;29;20055;-85
2022/07/01 02:11:17;;;;;;;34.30;29.30;;;16.50;99.90;;;;;;4951396;29;20101;-84
2022/07/01 02:13:44;;;;;;;37.80;31.90;;;16.50;99.90;;;;;;4935707;29;20093;-84
2022/07/01 02:16:09;;;;;;;36.13;30.55;;;16.50;99.90;;;;;;4936268;29;20027;-84
2022/07/01 02:18:35;;;;;;;35.70;28.98;;;16.40;99.90;;;;;;4950904;29;20115;-85
2022/07/01 02:21:01;;;;;;;38.83;32.20;;;16.40;99.90;;;;;;4935470;29;20038;-85
2022/07/01 02:23:27;;;;;;;34.55;28.92;;;16.40;99.90;;;;;;4935605;29;20088;-84
2022/07/01 02:25:52;;;;;;;34.83;28.23;;;16.30;99.90;;;;;;4951475;29;20383;-84
2022/07/01 02:28:18;;;;;;;34.00;28.23;;;16.30;99.90;;;;;;4935882;29;20031;-86
2022/07/01 02:30:44;;;;;;;34.10;28.13;;;16.30;99.90;;;;;;4952096;29;20081;-85
2022/07/01 02:33:10;;;;;;;32.08;26.90;;;16.30;99.90;;;;;;4952319;29;20030;-85
2022/07/01 02:35:39;;;;;;;34.05;28.90;;;16.30;99.90;;;;;;4951730;29;20544;-85
2022/07/01 02:38:05;;;;;;;31.85;27.73;;;16.30;99.90;;;;;;4951381;29;20066;-85
2022/07/01 02:40:31;;;;;;;33.83;27.83;;;16.30;99.90;;;;;;4935217;29;20036;-85
2022/07/01 02:42:56;;;;;;;33.28;27.10;;;16.30;99.90;;;;;;4935129;29;20028;-86
2022/07/01 02:45:24;;;;;;;32.17;27.30;;;16.20;99.90;;;;;;4935188;29;20032;-85
2022/07/01 02:47:50;;;;;;;35.92;27.98;;;16.20;99.90;;;;;;4935305;29;20027;-85
2022/07/01 02:50:18;;;;;;;33.47;27.23;;;16.20;99.90;;;;;;4935277;29;20499;-85
2022/07/01 02:52:45;;;;;;;34.53;28.13;;;16.20;99.90;;;;;;4935118;29;20038;-85
2022/07/01 02:55:12;;;;;;;31.45;26.45;;;16.20;99.90;;;;;;4951024;29;20019;-85
2022/07/01 02:57:38;;;;;;;30.75;26.60;;;16.10;99.90;;;;;;4951155;29;20028;-85
2022/07/01 03:00:10;;;;;;;32.03;26.80;;;16.10;99.90;;;;;;4951078;29;20023;-84
2022/07/01 03:02:40;;;;;;;32.75;25.65;;;16.10;99.90;;;;;;4950899;29;20081;-84
2022/07/01 03:05:10;;;;;;;29.60;25.33;;;16.10;99.90;;;;;;4950924;29;20030;-85
2022/07/01 03:07:39;;;;;;;32.80;26.97;;;16.10;99.90;;;;;;4950942;29;20396;-85
2022/07/01 03:10:11;;;;;;;33.00;27.05;;;16.00;99.90;;;;;;4935076;29;20039;-85
2022/07/01 03:12:43;;;;;;;33.75;27.25;;;16.00;99.90;;;;;;4934808;29;20031;-85
2022/07/01 03:15:15;;;;;;;33.58;27.75;;;16.00;99.90;;;;;;4951005;29;20089;-85
2022/07/01 03:17:46;;;;;;;35.97;26.73;;;15.90;99.90;;;;;;4935020;29;20036;-85
2022/07/01 03:20:14;;;;;;;32.55;27.38;;;15.90;99.90;;;;;;4934971;29;20039;-83
2022/07/01 03:22:41;;;;;;;33.15;25.95;;;15.90;99.90;;;;;;4950738;29;20443;-84
2022/07/01 03:25:14;;;;;;;33.58;27.08;;;15.90;99.90;;;;;;4966818;28;20114;-84
2022/07/01 03:27:44;;;;;;;36.35;27.55;;;15.80;99.90;;;;;;4950787;29;20066;-84
2022/07/01 03:30:17;;;;;;;31.98;25.77;;;15.90;99.90;;;;;;4938401;29;20366;-85
2022/07/01 03:32:47;;;;;;;32.97;26.20;;;15.90;99.90;;;;;;4953822;29;20047;-85
2022/07/01 03:38:00;;;;;;;36.50;26.10;;;15.80;99.90;;;;;;4936028;29;20135;-85
2022/07/01 03:40:25;;;;;;;35.08;26.90;;;15.80;99.90;;;;;;5017988;28;20126;-85
2022/07/01 03:42:52;;;;;;;33.08;25.33;;;15.80;99.90;;;;;;5018028;28;20094;-85
2022/07/01 03:45:17;;;;;;;30.73;24.80;;;15.80;99.90;;;;;;5018029;28;20094;-86
2022/07/01 03:47:50;;;;;;;32.47;25.35;;;15.70;99.90;;;;;;5018230;28;20469;-86
2022/07/01 03:50:17;;;;;;;36.17;28.10;;;15.80;99.90;;;;;;4934593;29;20027;-83
2022/07/01 03:52:43;;;;;;;33.03;25.25;;;15.80;99.90;;;;;;5017221;28;20063;-84
2022/07/01 03:55:09;;;;;;;38.08;26.20;;;15.80;99.90;;;;;;4934502;29;20504;-84
2022/07/01 03:57:35;;;;;;;34.80;25.98;;;15.80;99.90;;;;;;5017692;28;20046;-84
2022/07/01 04:00:00;;;;;;;33.90;25.98;;;15.80;99.90;;;;;;5017919;28;20122;-84
2022/07/01 04:02:26;;;;;;;38.33;27.52;;;15.80;99.90;;;;;;5017654;28;20032;-84
2022/07/01 04:04:52;;;;;;;33.92;25.58;;;15.80;99.90;;;;;;5017654;28;20081;-84
2022/07/01 04:07:17;;;;;;;36.92;28.02;;;15.80;99.90;;;;;;5017877;28;20501;-85
2022/07/01 04:09:43;;;;;;;34.65;26.35;;;15.70;99.90;;;;;;5000992;28;20505;-84
2022/07/01 04:12:12;;;;;;;35.20;24.98;;;15.70;99.90;;;;;;4935658;29;20058;-84
2022/07/01 04:14:38;;;;;;;32.50;25.05;;;15.70;99.90;;;;;;4935533;29;20150;-84
2022/07/01 04:17:04;;;;;;;33.83;23.95;;;15.70;99.90;;;;;;4934204;29;20031;-85
2022/07/01 04:19:30;;;;;;;33.28;24.17;;;15.70;99.90;;;;;;4935250;29;20024;-85
2022/07/01 04:24:40;;;;;;;34.40;24.95;;;15.70;99.90;;;;;;5005431;28;20059;-85
2022/07/01 04:27:06;;;;;;;33.80;24.85;;;15.70;99.90;;;;;;4934409;29;20035;-84
2022/07/01 04:29:32;;;;;;;36.85;26.13;;;15.70;99.90;;;;;;5017646;28;20074;-84
2022/07/01 04:31:58;;;;;;;40.75;26.95;;;15.70;99.90;;;;;;4936116;29;20074;-85
2022/07/01 04:34:27;;;;;;;36.30;25.50;;;15.70;99.90;;;;;;4934385;29;20047;-84
2022/07/01 04:36:59;;;;;;;36.25;26.30;;;15.70;99.90;;;;;;4976852;28;20047;-84
2022/07/01 04:39:28;;;;;;;33.40;24.70;;;15.70;99.90;;;;;;4949160;29;20063;-84
2022/07/01 04:42:03;;;;;;;39.28;25.50;;;15.70;99.90;;;;;;4932939;29;20034;-84
2022/07/01 04:44:31;;;;;;;36.40;25.27;;;15.70;99.90;;;;;;4934921;29;20023;-84
2022/07/01 04:46:57;;;;;;;35.22;24.08;;;15.70;99.90;;;;;;4949676;29;20063;-84
2022/07/01 04:49:30;;;;;;;34.70;25.25;;;15.70;99.90;;;;;;4949621;29;20028;-84
2022/07/01 04:51:57;;;;;;;36.00;24.73;;;15.70;99.90;;;;;;4934237;29;20031;-85
2022/07/01 04:54:28;;;;;;;32.95;24.52;;;15.60;99.90;;;;;;4935327;29;20106;-85
2022/07/01 04:57:07;;;;;;;34.22;23.30;;;15.60;99.90;;;;;;4935526;29;20473;-84
2022/07/01 04:59:33;;;;;;;30.13;22.35;;;15.60;99.90;;;;;;4950546;29;20031;-85
2022/07/01 05:02:08;;;;;;;34.58;23.52;;;15.50;99.90;;;;;;4950094;29;20078;-84
2022/07/01 05:04:33;;;;;;;32.47;23.48;;;15.50;99.90;;;;;;4949516;29;20035;-84
2022/07/01 05:07:27;;;;;;;31.20;21.58;;;15.50;99.90;;;;;;4933323;29;20055;-85
2022/07/01 05:09:54;;;;;;;30.00;21.75;;;15.50;99.90;;;;;;4946825;29;20024;-85
2022/07/01 05:12:20;;;;;;;28.38;20.90;;;15.50;99.90;;;;;;4933313;29;20020;-85
2022/07/01 05:14:45;;;;;;;28.20;20.75;;;15.50;99.90;;;;;;4933308;29;20076;-85
2022/07/01 05:17:11;;;;;;;31.40;21.45;;;15.50;99.90;;;;;;4937985;29;20042;-85
2022/07/01 05:22:20;;;;;;;28.80;21.15;;;15.50;99.90;;;;;;4933667;29;20106;-85
2022/07/01 05:24:47;;;;;;;34.13;21.60;;;15.50;99.90;;;;;;4949351;28;20059;-84
2022/07/01 05:27:12;;;;;;;32.97;22.75;;;15.50;99.90;;;;;;4965269;28;20032;-85
2022/07/01 05:29:38;;;;;;;29.65;21.90;;;15.50;99.90;;;;;;4949070;29;20028;-85
2022/07/01 05:32:04;;;;;;;28.75;19.92;;;15.50;99.90;;;;;;4932957;29;20389;-84
2022/07/01 05:34:30;;;;;;;31.15;21.58;;;15.50;99.90;;;;;;4964934;28;20454;-85
2022/07/01 05:36:56;;;;;;;29.90;21.42;;;15.50;99.90;;;;;;5020539;28;20049;-85
2022/07/01 05:39:22;;;;;;;31.17;21.13;;;15.50;99.90;;;;;;5052855;28;20036;-85
2022/07/01 05:41:48;;;;;;;31.40;20.67;;;15.60;99.90;;;;;;5024862;28;20128;-85
2022/07/01 05:44:13;;;;;;;31.25;22.33;;;15.50;99.90;;;;;;5016041;28;20382;-85
2022/07/01 05:46:42;;;;;;;29.38;20.05;;;15.60;99.90;;;;;;5032625;28;20033;-85
2022/07/01 05:49:14;;;;;;;27.40;19.08;;;15.60;99.90;;;;;;5015290;28;20034;-83
2022/07/01 05:51:40;;;;;;;29.55;19.23;;;15.60;99.90;;;;;;5046553;28;20057;-83
2022/07/01 05:54:07;;;;;;;29.00;18.95;;;15.60;99.90;;;;;;5031444;28;20103;-83
2022/07/01 05:56:33;;;;;;;26.73;19.60;;;15.60;99.90;;;;;;5032600;28;20466;-84
2022/07/01 05:58:59;;;;;;;26.92;19.50;;;15.50;99.90;;;;;;5016157;28;20038;-83
2022/07/01 06:01:25;;;;;;;25.90;18.65;;;15.60;99.90;;;;;;5049112;28;20056;-84
2022/07/01 06:03:51;;;;;;;25.42;18.48;;;15.60;99.90;;;;;;5032941;28;20033;-84
2022/07/01 06:06:23;;;;;;;27.73;19.65;;;15.60;99.90;;;;;;5032693;28;20033;-85
2022/07/01 06:08:52;;;;;;;28.67;19.25;;;15.60;99.90;;;;;;5036346;28;20041;-90
2022/07/01 06:11:24;;;;;;;27.60;18.92;;;15.60;99.90;;;;;;5023743;28;20059;-91
2022/07/01 06:13:49;;;;;;;26.02;18.75;;;15.60;99.90;;;;;;5038775;28;20453;-91
2022/07/01 06:16:24;;;;;;;30.70;19.38;;;15.60;99.90;;;;;;5038113;28;20033;-90
2022/07/01 06:18:50;;;;;;;29.80;20.00;;;15.60;99.90;;;;;;5035100;28;20029;-91
2022/07/01 06:21:26;;;;;;;31.10;18.67;;;15.60;99.90;;;;;;5035994;28;20018;-89
2022/07/01 06:23:51;;;;;;;26.70;19.05;;;15.60;99.90;;;;;;5035348;28;20025;-90
2022/07/01 06:26:26;;;;;;;26.15;18.27;;;15.60;99.90;;;;;;5019421;28;20026;-91
2022/07/01 06:28:52;;;;;;;29.45;20.25;;;15.60;99.90;;;;;;5035331;28;20479;-91
2022/07/01 06:31:33;;;;;;;30.30;20.52;;;15.70;99.90;;;;;;5036484;28;20032;-90
2022/07/01 06:34:00;;;;;;;31.17;20.63;;;15.70;99.90;;;;;;5035566;28;20025;-92
2022/07/01 06:36:29;;;;;;;33.28;20.55;;;15.60;99.90;;;;;;4995819;28;20493;-91
2022/07/01 06:38:54;;;;;;;31.67;19.95;;;15.60;99.90;;;;;;4955530;28;20036;-91
2022/07/01 06:41:32;;;;;;;27.92;19.88;;;15.70;99.90;;;;;;4954846;28;20035;-90
2022/07/01 06:44:00;;;;;;;29.48;20.27;;;15.70;99.90;;;;;;4952498;28;20040;-90
2022/07/01 06:46:33;;;;;;;29.92;20.00;;;15.70;99.90;;;;;;4936687;29;20445;-90
2022/07/01 06:48:59;;;;;;;29.38;19.75;;;15.80;99.90;;;;;;4955866;28;20024;-90
2022/07/01 06:51:34;;;;;;;32.00;20.05;;;15.80;99.90;;;;;;4935832;29;20042;-90
2022/07/01 06:54:06;;;;;;;29.77;19.88;;;15.70;99.90;;;;;;4950698;28;20024;-91
2022/07/01 06:56:35;;;;;;;32.85;20.02;;;15.80;99.90;;;;;;4933696;29;20156;-91
2022/07/01 06:59:07;;;;;;;29.17;19.00;;;15.70;99.90;;;;;;4950015;28;20028;-91
2022/07/01 07:01:35;;;;;;;27.83;20.02;;;15.70;99.90;;;;;;4950510;28;20103;-91
2022/07/01 07:04:07;;;;;;;30.10;17.73;;;15.70;99.90;;;;;;4934962;29;20028;-90
2022/07/01 07:06:33;;;;;;;31.35;19.63;;;15.80;99.90;;;;;;4952858;28;20111;-91
2022/07/01 07:08:59;;;;;;;29.83;18.77;;;15.80;99.90;;;;;;4937433;29;20051;-89
2022/07/01 07:11:40;;;;;;;27.83;18.63;;;15.80;99.90;;;;;;4942563;29;20016;-90
2022/07/01 07:14:06;;;;;;;28.27;18.95;;;15.80;99.90;;;;;;4927363;29;20046;-90
2022/07/01 07:16:35;;;;;;;29.05;17.98;;;15.80;99.90;;;;;;4954559;28;20035;-90
2022/07/01 07:19:07;;;;;;;30.90;18.92;;;15.80;99.90;;;;;;4955399;29;20034;-90
2022/07/01 07:21:33;;;;;;;27.73;18.52;;;15.90;99.90;;;;;;4956544;28;20097;-90
2022/07/01 07:24:05;;;;;;;30.30;18.65;;;15.90;99.90;;;;;;4967342;28;20031;-90
2022/07/01 07:26:43;;;;;;;26.40;17.75;;;15.90;99.90;;;;;;4957776;28;20181;-90
2022/07/01 07:29:09;;;;;;;25.48;17.65;;;16.00;99.90;;;;;;4929346;28;20123;-91
2022/07/01 07:31:34;;;;;;;24.27;17.65;;;16.00;99.90;;;;;;4966390;28;20067;-90
2022/07/01 07:34:00;;;;;;;27.10;18.58;;;16.00;99.90;;;;;;4951361;29;20117;-90
2022/07/01 07:36:26;;;;;;;26.85;18.27;;;16.10;99.90;;;;;;4967221;28;20509;-91
2022/07/01 07:39:00;;;;;;;26.17;19.02;;;16.20;99.90;;;;;;4924592;28;20123;-91
2022/07/01 07:41:26;;;;;;;23.83;17.73;;;16.20;99.90;;;;;;4980503;28;20113;-90
2022/07/01 07:43:51;;;;;;;24.90;17.50;;;16.30;99.90;;;;;;4955588;28;20113;-90
2022/07/01 07:46:17;;;;;;;23.75;17.63;;;16.40;99.90;;;;;;4964137;28;20050;-90
2022/07/01 07:48:45;;;;;;;21.05;15.75;;;16.40;99.90;;;;;;4940762;29;20540;-92
2022/07/01 07:51:15;;;;;;;22.50;15.68;;;16.50;99.90;;;;;;4957591;29;20372;-92
2022/07/01 07:53:41;;;;;;;21.65;16.23;;;16.50;99.90;;;;;;4949523;28;20091;-89
2022/07/01 07:56:07;;;;;;;22.10;15.48;;;16.60;99.90;;;;;;4965575;28;20049;-89
2022/07/01 07:58:32;;;;;;;25.48;14.38;;;16.60;99.90;;;;;;4949233;28;20023;-89
2022/07/01 08:00:58;;;;;;;20.30;14.63;;;16.60;99.90;;;;;;4943574;29;20045;-91
2022/07/01 08:03:24;;;;;;;22.90;15.10;;;16.70;99.90;;;;;;4958289;29;20027;-90
2022/07/01 08:05:49;;;;;;;18.90;12.75;;;16.70;99.90;;;;;;4961582;28;20023;-92
2022/07/01 08:08:15;;;;;;;18.60;12.90;;;16.80;99.90;;;;;;4965579;28;19914;-91
2022/07/01 08:10:41;;;;;;;17.20;13.07;;;16.80;99.90;;;;;;4945153;29;20055;-91
2022/07/01 08:13:07;;;;;;;17.17;12.88;;;16.80;99.90;;;;;;4948766;28;20053;-91
2022/07/01 08:15:33;;;;;;;17.02;12.02;;;16.90;99.90;;;;;;4959679;28;20027;-91
2022/07/01 08:17:59;;;;;;;18.30;11.80;;;16.90;99.90;;;;;;4963061;28;20035;-92
2022/07/01 08:20:24;;;;;;;14.13;10.50;;;17.00;99.90;;;;;;4977677;28;20034;-89
2022/07/01 08:22:50;;;;;;;17.27;11.45;;;17.00;99.90;;;;;;4962821;28;20103;-89
2022/07/01 08:25:17;;;;;;;15.45;10.18;;;17.10;99.90;;;;;;4968592;28;20070;-90
2022/07/01 08:27:43;;;;;;;15.85;9.98;;;17.20;99.90;;;;;;4965050;28;20035;-92
2022/07/01 08:30:09;;;;;;;13.60;8.95;;;17.20;99.90;;;;;;4963814;28;20019;-90
2022/07/01 08:32:35;;;;;;;14.07;7.68;;;17.30;99.90;;;;;;4968747;28;20042;-90
2022/07/01 08:35:01;;;;;;;10.65;6.47;;;17.30;99.90;;;;;;4976740;28;20027;-90
2022/07/01 08:37:26;;;;;;;11.43;7.45;;;17.40;99.90;;;;;;4943375;28;20111;-88
2022/07/01 08:39:52;;;;;;;10.88;6.93;;;17.40;99.90;;;;;;5008232;28;20408;-89
2022/07/01 08:42:18;;;;;;;10.48;5.50;;;17.40;99.90;;;;;;5008059;28;20055;-89
2022/07/01 08:44:50;;;;;;;9.13;4.60;;;17.50;99.90;;;;;;5025033;28;20038;-91
2022/07/01 08:47:16;;;;;;;7.38;3.92;;;17.50;99.90;;;;;;4957593;29;20046;-89
2022/07/01 08:49:44;;;;;;;8.90;3.88;;;17.50;99.90;;;;;;5025696;28;20102;-90
2022/07/01 08:52:10;;;;;;;8.23;3.92;;;17.50;99.90;;;;;;5008050;28;20050;-90
2022/07/01 08:54:38;;;;;;;6.53;3.40;;;17.50;99.90;;;;;;4956925;28;20098;-91
2022/07/01 08:57:04;;;;;;;7.75;3.75;;;17.60;99.90;;;;;;5020740;28;20028;-90
2022/07/01 08:59:30;;;;;;;8.27;3.72;;;17.60;99.90;;;;;;5004778;28;20034;-90
2022/07/01 09:02:00;;;;;;;9.20;3.47;;;17.60;99.90;;;;;;5005638;28;20122;-92
2022/07/01 09:04:27;;;;;;;8.23;2.77;;;17.60;99.90;;;;;;4954798;28;20027;-92
2022/07/01 09:07:09;;;;;;;7.70;3.20;;;17.70;99.90;;;;;;4955766;28;20028;-91
2022/07/01 09:09:37;;;;;;;7.28;2.88;;;17.70;99.90;;;;;;4955822;29;20038;-91
2022/07/01 09:12:04;;;;;;;8.27;2.53;;;17.80;99.90;;;;;;4955408;28;20118;-91
2022/07/01 09:14:32;;;;;;;7.72;2.70;;;17.90;99.90;;;;;;5009163;28;20032;-93
2022/07/01 09:17:00;;;;;;;6.65;2.45;;;18.00;99.90;;;;;;4959868;28;20121;-91
2022/07/01 09:19:28;;;;;;;9.07;2.60;;;18.00;99.90;;;;;;4955225;28;20027;-92
2022/07/01 09:22:01;;;;;;;3.38;2.08;;;18.10;99.90;;;;;;5022556;28;20036;-92
2022/07/01 09:24:51;;;;;;;3.80;1.50;;;18.10;99.90;;;;;;5019579;28;20046;-91
2022/07/01 09:27:17;;;;;;;4.80;1.98;;;18.20;99.90;;;;;;4954470;28;20023;-91
2022/07/01 09:29:49;;;;;;;7.13;1.77;;;18.20;99.90;;;;;;5005127;28;20552;-90
2022/07/01 09:32:18;;;;;;;4.55;1.75;;;18.20;99.90;;;;;;4954086;29;20487;-91
2022/07/01 09:34:46;;;;;;;4.45;2.10;;;18.20;99.90;;;;;;4954536;28;20027;-90
2022/07/01 09:37:14;;;;;;;4.75;1.98;;;18.30;99.90;;;;;;4953883;28;20090;-92
2022/07/01 09:39:51;;;;;;;6.55;2.00;;;18.30;99.90;;;;;;5021268;28;20035;-91
2022/07/01 09:42:19;;;;;;;4.53;2.22;;;18.40;99.90;;;;;;4940874;29;20034;-89
2022/07/01 09:44:56;;;;;;;4.85;1.67;;;18.50;99.90;;;;;;4934287;28;20110;-92
2022/07/01 09:47:26;;;;;;;4.03;1.80;;;18.60;99.90;;;;;;4934590;28;20035;-91
2022/07/01 09:49:54;;;;;;;6.05;1.95;;;18.60;99.90;;;;;;4934087;29;20035;-92
2022/07/01 09:52:21;;;;;;;4.45;2.08;;;18.70;99.90;;;;;;4934494;28;20031;-92
2022/07/01 09:54:47;;;;;;;4.20;1.77;;;18.80;99.90;;;;;;4935308;28;20024;-92
2022/07/01 09:57:21;;;;;;;6.20;1.90;;;18.90;99.90;;;;;;4920865;29;20043;-91
2022/07/01 09:59:51;;;;;;;4.38;1.65;;;18.90;99.90;;;;;;4938981;28;20020;-92
2022/07/01 10:02:21;;;;;;;5.93;2.20;;;19.00;99.90;;;;;;4938573;28;20039;-91
2022/07/01 10:04:51;;;;;;;4.97;1.93;;;19.10;99.90;;;;;;4936937;28;20043;-92
2022/07/01 10:07:35;;;;;;;5.63;1.63;;;19.10;99.90;;;;;;4935568;29;20284;-91
2022/07/01 10:10:28;;;;;;;3.72;1.80;;;19.10;99.90;;;;;;4941568;29;20043;-92
2022/07/01 10:12:55;;;;;;;3.53;1.60;;;19.10;99.90;;;;;;4924358;28;20043;-92
2022/07/01 10:15:21;;;;;;;5.45;1.77;;;19.10;99.90;;;;;;4938221;28;20175;-92
2022/07/01 10:17:49;;;;;;;5.00;1.50;;;19.20;99.90;;;;;;4935327;28;20138;-91
2022/07/01 10:20:17;;;;;;;3.78;1.50;;;19.20;99.90;;;;;;4935399;28;20032;-91
2022/07/01 10:22:44;;;;;;;3.55;1.48;;;19.20;99.90;;;;;;4935600;28;20040;-91
2022/07/01 10:25:33;;;;;;;4.22;1.27;;;19.20;99.90;;;;;;4935091;28;20029;-91
2022/07/01 10:28:43;;;;;;;3.83;1.70;;;19.30;99.90;;;;;;4935700;28;20035;-90
2022/07/01 10:31:36;;;;;;;5.50;1.33;;;19.30;99.90;;;;;;4935799;28;20055;-91
2022/07/01 10:34:03;;;;;;;4.53;1.80;;;19.40;99.90;;;;;;4935334;29;20428;-91
2022/07/01 10:36:31;;;;;;;3.97;1.20;;;19.50;99.90;;;;;;4943683;28;20113;-90
2022/07/01 10:39:03;;;;;;;4.63;1.25;;;19.50;99.90;;;;;;4956469;28;20031;-91
2022/07/01 10:41:32;;;;;;;6.88;1.40;;;19.60;99.90;;;;;;4957319;29;20058;-92
2022/07/01 10:44:02;;;;;;;5.03;1.45;;;19.70;99.60;;;;;;4957099;29;20023;-91
2022/07/01 10:46:48;;;;;;;;;;;19.70;99.60;;;;;;4972850;28;20035;-91
2022/07/01 10:49:15;;;;;;;6.35;1.80;;;19.80;99.90;;;;;;4957544;29;19907;-91
2022/07/01 10:51:49;;;;;;;2.45;1.30;;;19.90;99.50;;;;;;4940562;29;20118;-92
2022/07/01 10:54:33;;;;;;;3.67;1.20;;;19.90;99.90;;;;;;4956719;29;20027;-92
2022/07/01 10:57:24;;;;;;;4.70;1.85;;;20.10;99.90;;;;;;4956939;29;20030;-91
2022/07/01 11:00:15;;;;;;;2.47;1.10;;;20.10;99.90;;;;;;4953530;28;20051;-91
2022/07/01 11:02:41;;;;;;;2.97;1.40;;;20.20;99.90;;;;;;4959501;28;20027;-92
2022/07/01 11:05:13;;;;;;;2.45;1.20;;;20.30;96.50;;;;;;4962863;29;20549;-90
2022/07/01 11:07:45;;;;;;;5.45;1.77;;;20.30;98.10;;;;;;4960735;29;20027;-89
2022/07/01 11:10:12;;;;;;;5.53;1.80;;;20.40;97.90;;;;;;4959592;29;20027;-91
2022/07/01 11:12:40;;;;;;;6.72;1.65;;;20.40;97.90;;;;;;4957200;29;20028;-90
2022/07/01 11:15:07;;;;;;;2.85;1.38;;;20.40;97.80;;;;;;4956442;29;20118;-91
2022/07/01 11:17:34;;;;;;;3.03;1.20;;;20.50;98.00;;;;;;4956581;29;20027;-91
2022/07/01 11:20:02;;;;;;;6.13;1.35;;;20.50;98.30;;;;;;4957201;29;20062;-91
2022/07/01 11:22:35;;;;;;;4.82;1.10;;;20.50;98.30;;;;;;4957442;29;20478;-90
2022/07/01 11:25:11;;;;;;;4.80;1.55;;;20.50;99.50;;;;;;4956879;29;20028;-91
2022/07/01 11:27:38;;;;;;;5.40;1.60;;;20.60;99.80;;;;;;4956825;29;20024;-90
2022/07/01 11:30:12;;;;;;;4.63;1.35;;;20.70;99.20;;;;;;4956063;29;20483;-91
2022/07/01 11:32:44;;;;;;;3.65;1.60;;;20.70;98.40;;;;;;4956882;29;20093;-91
2022/07/01 11:41:02;;;;;;;3.10;1.40;;;20.90;97.40;;;;;;4972151;28;20511;-90
2022/07/01 11:43:33;;;;;;;2.78;1.10;;;20.90;96.50;;;;;;4959405;29;20034;-91
2022/07/01 11:46:01;;;;;;;4.45;1.45;;;20.90;96.60;;;;;;4960575;28;20027;-91
2022/07/01 11:48:36;;;;;;;3.55;1.10;;;21.00;96.80;;;;;;4945211;28;20035;-92
2022/07/01 11:51:20;;;;;;;4.15;1.40;;;21.00;97.50;;;;;;5007318;28;20024;-92
2022/07/01 11:53:48;;;;;;;3.22;1.25;;;21.00;98.10;;;;;;4946084;28;20047;-92
2022/07/01 11:56:15;;;;;;;3.65;1.10;;;21.10;96.20;;;;;;4942283;29;20032;-91
2022/07/01 11:58:48;;;;;;;4.65;1.40;;;21.10;96.40;;;;;;4927936;29;20032;-92
2022/07/01 12:01:28;;;;;;;5.30;1.30;;;21.20;97.70;;;;;;4981252;28;20073;-92
2022/07/01 12:03:56;;;;;;;7.15;1.35;;;21.20;98.00;;;;;;4986325;28;20028;-91
2022/07/01 12:06:23;;;;;;;3.05;1.00;;;21.20;96.00;;;;;;4941956;29;20081;-92
2022/07/01 12:08:50;;;;;;;3.60;1.13;;;21.30;96.10;;;;;;4938324;29;20473;-91
2022/07/01 12:11:17;;;;;;;4.32;1.30;;;21.40;96.60;;;;;;4936004;29;20055;-91
2022/07/01 12:13:46;;;;;;;2.90;1.00;;;21.40;95.90;;;;;;4938646;29;20393;-92
2022/07/01 12:16:12;;;;;;;4.22;1.25;;;21.40;95.80;;;;;;4939880;29;20412;-91
2022/07/01 12:18:38;;;;;;;3.90;1.00;;;21.50;95.40;;;;;;4938833;29;20039;-92
2022/07/01 12:21:04;;;;;;;3.53;1.20;;;21.50;93.80;;;;;;4938089;29;20028;-92
2022/07/01 12:23:32;;;;;;;6.57;1.90;;;21.50;94.00;;;;;;4938066;29;20366;-91
2022/07/01 12:25:58;;;;;;;3.28;1.10;;;21.60;93.70;;;;;;4939220;29;20030;-91
2022/07/01 12:28:32;;;;;;;4.13;1.20;;;21.60;93.30;;;;;;4940120;29;20123;-92
2022/07/01 12:31:18;;;;;;;4.80;1.55;;;21.60;95.70;;;;;;4940238;29;20079;-91
2022/07/01 12:33:52;;;;;;;2.47;1.00;;;21.70;96.00;;;;;;4938444;29;20392;-92
2022/07/01 12:36:18;;;;;;;3.60;1.30;;;21.80;95.90;;;;;;4947223;29;20136;-92
2022/07/01 12:38:44;;;;;;;5.00;1.23;;;21.90;94.40;;;;;;4942574;29;20019;-90
2022/07/01 12:41:36;;;;;;;4.80;1.50;;;21.90;94.50;;;;;;4958458;29;20380;-91
2022/07/01 12:44:19;;;;;;;4.57;1.30;;;22.00;96.20;;;;;;4956502;29;20024;-91
2022/07/01 12:46:45;;;;;;;6.20;1.35;;;22.00;94.90;;;;;;4957015;29;20035;-92
2022/07/01 12:49:22;;;;;;;8.25;1.20;;;22.10;94.90;;;;;;4942435;29;20023;-91
2022/07/01 12:51:47;;;;;;;3.90;1.23;;;22.00;95.30;;;;;;5030540;23;20060;-91
2022/07/01 12:54:38;;;;;;;5.13;1.30;;;22.00;93.80;;;;;;5110272;28;20033;-91
2022/07/01 12:57:04;;;;;;;4.78;1.45;;;22.00;95.50;;;;;;5114306;28;20040;-91
2022/07/01 12:59:30;;;;;;;4.85;1.30;;;22.00;93.00;;;;;;5112412;28;20025;-91